• Join FlightAware (Why Join?)
  • Login
  • US Flag 
08:22PM EDT


 

Airport Tracker/Info


-or-


 

Live Flight TrackerFlight Track Log ✈ EMD21 ✈ 24-Jul-2013 ✈ KCWC - KMLC

Flight Track Log - Related Links

Times and Time Zones

All times are in EDT time to prevent confusion due to time zone crossing. See the EMD21 flight status page for this flight to view local times or setup timezone preferences in your user account.

Time Position Orientation Groundspeed Altitude Reporting Facility
EDT Latitude Longitude Course Direction KTS MPH feet Rate Location/Type
06:52PM 33.8850 -98.4894 90° East 114 131 1,800  Level Fort Worth Center
06:52PM 33.8850 -98.4644 90° East 128 147 2,400 1,080 Climbing Fort Worth Center
06:53PM 33.8917 -98.4194 80° East 133 153 3,600 1,200 Climbing Fort Worth Center
06:55PM 33.9006 -98.3494 81° East 159 183 5,400 1,200 Climbing Fort Worth Center
06:56PM 33.8989 -98.2994 92° East 159 183 6,600 1,200 Climbing Fort Worth Center
06:57PM 33.8972 -98.2467 92° East 159 183 7,800 1,140 Climbing Fort Worth Center
06:58PM 33.8953 -98.2017 93° East 159 183 8,900 1,020 Climbing Fort Worth Center
06:59PM 33.8894 -98.1467 97° East 159 183 9,900 1,080 Climbing Fort Worth Center
07:00PM 33.8836 -98.0864 97° East 159 183 11,100 1,080 Climbing Fort Worth Center
07:01PM 33.8733 -98.0339 103° East 159 183 12,100 900 Climbing Fort Worth Center
07:02PM 33.8631 -97.9789 103° East 159 183 13,000 420 Climbing Fort Worth Center
07:03PM 33.8531 -97.9261 103° East 172 198 13,000  Level Fort Worth Center
07:04PM 33.8386 -97.8561 104° East 195 224 13,000  Level Fort Worth Center
07:05PM 33.8264 -97.7761 100° East 212 244 13,000  Level Fort Worth Center
07:06PM 33.8142 -97.7058 102° East 212 244 13,000  Level Fort Worth Center
07:07PM 33.8308 -97.6436 72° East 204 235 13,000  Level Fort Worth Center
07:08PM 33.8622 -97.5936 53° Northeast 199 229 13,000  Level Fort Worth Center
07:09PM 33.8917 -97.5386 57° Northeast 199 229 13,000  Level Fort Worth Center
07:10PM 33.9269 -97.4761 56° Northeast 199 229 13,000  Level Fort Worth Center
07:11PM 33.9625 -97.4211 52° Northeast 192 221 13,000  Level Fort Worth Center
07:12PM 33.9939 -97.3608 58° Northeast 192 221 13,000  Level Fort Worth Center
07:13PM 34.0250 -97.3108 53° Northeast 192 221 13,000  Level Fort Worth Center
07:14PM 34.0583 -97.2531 55° Northeast 192 221 13,000  Level Fort Worth Center
07:15PM 34.0897 -97.1953 57° Northeast 192 221 13,000  Level Fort Worth Center
07:16PM 34.1167 -97.1500 54° Northeast 192 221 13,000  Level Fort Worth Center
07:17PM 34.1458 -97.0922 59° Northeast 192 221 13,000  Level Fort Worth Center
07:18PM 34.1811 -97.0394 51° Northeast 192 221 13,000  Level Fort Worth Center
07:19PM 34.2122 -96.9764 59° Northeast 192 221 13,000  Level Fort Worth Center
07:20PM 34.2453 -96.9211 54° Northeast 197 227 13,000  Level Fort Worth Center
07:21PM 34.2786 -96.8606 56° Northeast 197 227 13,000  Level Fort Worth Center
07:22PM 34.3117 -96.8050 54° Northeast 197 227 13,000  Level Fort Worth Center
07:23PM 34.3447 -96.7494 54° Northeast 197 227 13,000  Level Fort Worth Center
07:24PM 34.3758 -96.6889 58° Northeast 202 232 13,000  Level Fort Worth Center
07:25PM 34.4108 -96.6331 53° Northeast 202 232 13,000  Level Fort Worth Center
07:26PM 34.4419 -96.5725 58° Northeast 202 232 13,000  Level Fort Worth Center
07:27PM 34.4747 -96.5167 55° Northeast 202 232 13,000 -60 Level Fort Worth Center
07:29PM 34.5406 -96.4000 56° Northeast 202 232 12,900 -420 Descending Fort Worth Center
07:30PM 34.5756 -96.3367 56° Northeast 208 239 11,800 -1,260 Descending Fort Worth Center
07:31PM 34.6147 -96.2656 56° Northeast 226 260 10,400 -1,320 Descending Fort Worth Center
07:32PM 34.6517 -96.1969 57° Northeast 239 275 9,200 -1,380 Descending Fort Worth Center
07:33PM 34.6925 -96.1281 54° Northeast 239 275 7,700 -1,080 Descending Fort Worth Center
07:34PM 34.7314 -96.0567 56° Northeast 239 275 7,100 -600 Descending Fort Worth Center